East Fort Myers, Florida
Current Conditions -  °F | °C
As of 5:53 PM on Monday 20 Oct 2014 (Local Time) from KFMY Reporting Station
Broken Clouds Broken Clouds  
Wind Chill: 86°   Ceiling: 5500
Heat Index: 87°   Visibility: 10mi
Dew Point: 63°   Wind: 0mph
Humidity: 46%   Direction: NA
Pressure: 29.91"   Gusts: NA
Location:  26.6355°N, 81.8675°W
Report Text: KFMY 202153Z 00000KT 10SM BKN055 BKN075 30/17 A2991 RMK AO2 SLP130 T03000172
Loading
Personal Weather Stations






























Interactive Weather Map
Tropical Storm Tracking
New forecast layout! Learn more

10-Day Weather Forecast

Advertisements
Track Severe Weather on mobile